Time;durP1;ratioP1;P1;durP2;ratioP2;P2;SDS_P1;SDS_P2;PMS_P1;PMS_P2;Temp;Humidity;BMP_temperature;BMP_pressure;BME280_temperature;BME280_humidity;BME280_pressure;Samples;Min_cycle;Max_cycle;Signal;HPM_P1;HPM_P2
2021/05/31 00:02:05;;;;;;;6.20;3.10;;;11.10;99.90;;;;;;5114584;28;20182;-85
2021/05/31 00:04:31;;;;;;;5.90;3.58;;;11.00;99.90;;;;;;5114691;28;20181;-85
2021/05/31 00:07:10;;;;;;;8.20;3.40;;;11.00;99.90;;;;;;5114808;28;20268;-86
2021/05/31 00:09:38;;;;;;;5.00;3.47;;;11.00;99.90;;;;;;5113035;28;20317;-86
2021/05/31 00:12:06;;;;;;;11.45;3.03;;;10.90;99.90;;;;;;5113178;28;20234;-85
2021/05/31 00:14:32;;;;;;;5.10;3.35;;;10.90;99.90;;;;;;5112813;28;20269;-86
2021/05/31 00:16:58;;;;;;;3.75;2.97;;;10.80;99.90;;;;;;5114340;28;20252;-86
2021/05/31 00:19:24;;;;;;;9.43;3.50;;;10.70;99.90;;;;;;5129825;27;20209;-85
2021/05/31 00:21:50;;;;;;;4.60;3.47;;;10.70;99.90;;;;;;5113707;28;20272;-85
2021/05/31 00:24:17;;;;;;;5.45;3.38;;;10.70;99.90;;;;;;5114414;28;20181;-85
2021/05/31 00:26:42;;;;;;;5.93;3.23;;;10.60;99.90;;;;;;5114111;28;20184;-86
2021/05/31 00:29:08;;;;;;;9.02;3.80;;;10.60;99.90;;;;;;5114018;28;20182;-85
2021/05/31 00:31:34;;;;;;;5.90;3.33;;;10.50;99.90;;;;;;5112518;28;20300;-86
2021/05/31 00:34:00;;;;;;;6.25;3.33;;;10.50;99.90;;;;;;5114212;28;20177;-85
2021/05/31 00:36:26;;;;;;;7.67;2.93;;;10.40;99.90;;;;;;5113068;28;20177;-85
2021/05/31 00:38:52;;;;;;;11.77;3.13;;;10.40;99.90;;;;;;5113746;28;20170;-85
2021/05/31 00:41:19;;;;;;;6.30;2.77;;;10.30;99.90;;;;;;5113885;28;20665;-85
2021/05/31 00:43:44;;;;;;;7.43;3.30;;;10.30;99.90;;;;;;5112235;28;20182;-85
2021/05/31 00:46:10;;;;;;;4.00;3.23;;;10.20;99.90;;;;;;5112525;28;20661;-85
2021/05/31 00:48:38;;;;;;;14.57;3.37;;;10.20;99.90;;;;;;5113720;28;20666;-85
2021/05/31 00:51:07;;;;;;;6.77;3.03;;;10.10;99.90;;;;;;5113882;28;20240;-85
2021/05/31 00:53:33;;;;;;;4.13;3.40;;;10.10;99.90;;;;;;5112332;28;20181;-85
2021/05/31 00:55:59;;;;;;;7.83;4.33;;;10.00;99.90;;;;;;5112107;28;20216;-85
2021/05/31 00:58:28;;;;;;;4.27;2.93;;;9.90;99.90;;;;;;5130072;27;20178;-85
2021/05/31 01:00:55;;;;;;;5.70;3.17;;;9.90;99.90;;;;;;5112250;28;20513;-85
2021/05/31 01:03:22;;;;;;;4.27;2.87;;;9.80;99.90;;;;;;5113554;28;20248;-85
2021/05/31 01:05:48;;;;;;;8.07;2.50;;;9.80;99.90;;;;;;5112181;28;20173;-85
2021/05/31 01:08:27;;;;;;;4.70;2.80;;;9.70;99.90;;;;;;5113442;28;20206;-85
2021/05/31 01:10:59;;;;;;;5.77;2.90;;;9.60;99.90;;;;;;5113135;28;20225;-85
2021/05/31 01:13:42;;;;;;;3.33;2.80;;;9.60;99.90;;;;;;5113611;28;20198;-85
2021/05/31 01:16:11;;;;;;;12.67;3.20;;;9.50;99.90;;;;;;5113677;28;20207;-85
2021/05/31 01:18:40;;;;;;;8.77;2.77;;;9.40;99.90;;;;;;5113330;28;20186;-85
2021/05/31 01:21:30;;;;;;;3.00;2.70;;;9.40;99.90;;;;;;5112126;28;20204;-85
2021/05/31 01:24:09;;;;;;;10.30;3.27;;;9.30;99.90;;;;;;5111929;28;20261;-85
2021/05/31 01:26:43;;;;;;;7.67;2.80;;;9.20;99.90;;;;;;5112283;28;20265;-85
2021/05/31 01:29:10;;;;;;;8.83;3.10;;;9.20;99.90;;;;;;5113460;28;20633;-85
2021/05/31 01:31:36;;;;;;;5.77;3.10;;;;;;;;;;5112122;28;20686;-85
2021/05/31 01:34:06;;;;;;;4.23;3.00;;;9.10;99.90;;;;;;5116156;28;20727;-85
2021/05/31 01:36:35;;;;;;;3.87;2.77;;;9.10;99.90;;;;;;5116500;28;20173;-85
2021/05/31 01:39:04;;;;;;;4.90;2.80;;;9.10;99.90;;;;;;5122474;28;20185;-85
2021/05/31 01:41:30;;;;;;;3.97;2.80;;;9.10;99.90;;;;;;5128846;28;20186;-85
2021/05/31 01:43:56;;;;;;;5.37;3.30;;;9.10;99.90;;;;;;5118798;28;20258;-85
2021/05/31 01:46:22;;;;;;;6.60;3.03;;;9.10;99.90;;;;;;5116322;28;20207;-85
2021/05/31 01:48:51;;;;;;;9.53;3.10;;;9.20;99.90;;;;;;5116932;28;20683;-85
2021/05/31 01:51:17;;;;;;;5.53;3.10;;;9.10;99.90;;;;;;5117345;28;20704;-85
2021/05/31 01:53:44;;;;;;;4.67;3.23;;;9.10;99.90;;;;;;5115617;28;20174;-85
2021/05/31 01:56:11;;;;;;;6.93;3.13;;;9.10;99.90;;;;;;5098954;28;20318;-85
2021/05/31 01:58:39;;;;;;;8.23;3.07;;;9.10;99.90;;;;;;5116840;28;20261;-85
2021/05/31 02:01:08;;;;;;;4.00;2.57;;;9.10;99.90;;;;;;5116861;28;20177;-85
2021/05/31 02:03:34;;;;;;;12.97;3.30;;;9.10;99.90;;;;;;5098897;28;20185;-86
2021/05/31 02:05:59;;;;;;;5.00;2.67;;;9.10;99.90;;;;;;5115338;28;20594;-85
2021/05/31 02:08:25;;;;;;;4.10;2.90;;;9.00;99.90;;;;;;5115354;28;20685;-85
2021/05/31 02:10:52;;;;;;;3.67;2.73;;;;;;;;;;5114822;28;20234;-85
2021/05/31 02:13:18;;;;;;;3.40;2.83;;;9.00;99.90;;;;;;5116569;28;20638;-85
2021/05/31 02:16:19;;;;;;;4.20;2.90;;;8.90;99.90;;;;;;5115428;28;20182;-85
2021/05/31 02:18:50;;;;;;;6.93;3.17;;;8.90;99.90;;;;;;5083420;28;20195;-85
2021/05/31 02:21:17;;;;;;;3.40;2.83;;;8.90;99.90;;;;;;5116811;28;20683;-85
2021/05/31 02:23:44;;;;;;;5.17;3.10;;;8.90;99.90;;;;;;5116502;28;20266;-85
2021/05/31 02:26:14;;;;;;;3.37;2.47;;;9.20;99.90;;;;;;5115176;28;20182;-85
2021/05/31 02:28:40;;;;;;;3.57;2.80;;;8.80;99.90;;;;;;5116564;28;20174;-85
2021/05/31 02:31:07;;;;;;;2.90;2.60;;;8.70;99.90;;;;;;5114691;28;20247;-85
2021/05/31 02:33:33;;;;;;;4.93;2.50;;;8.70;99.90;;;;;;5114742;28;20178;-85
2021/05/31 02:35:59;;;;;;;6.63;3.10;;;8.70;99.90;;;;;;5118593;28;20729;-86
2021/05/31 02:38:25;;;;;;;5.07;2.80;;;8.70;99.90;;;;;;5117739;28;20210;-85
2021/05/31 02:40:50;;;;;;;4.97;2.40;;;8.70;99.90;;;;;;5115916;28;20280;-85
2021/05/31 02:43:16;;;;;;;5.07;3.10;;;8.70;99.90;;;;;;5114562;28;20170;-85
2021/05/31 02:45:42;;;;;;;6.63;2.80;;;8.70;99.90;;;;;;5116261;28;20243;-86
2021/05/31 02:48:08;;;;;;;6.37;3.03;;;8.60;99.90;;;;;;5114426;28;20177;-85
2021/05/31 02:50:34;;;;;;;9.90;3.13;;;8.60;99.90;;;;;;5116183;28;20247;-85
2021/05/31 02:53:01;;;;;;;5.67;3.03;;;8.60;99.90;;;;;;5116175;28;20204;-85
2021/05/31 02:55:29;;;;;;;7.53;3.10;;;8.60;99.90;;;;;;5098187;28;20211;-85
2021/05/31 02:57:55;;;;;;;5.80;2.87;;;8.60;99.90;;;;;;5115960;28;20281;-85
2021/05/31 03:00:23;;;;;;;6.07;3.10;;;8.60;99.90;;;;;;5115990;28;20219;-85
2021/05/31 03:02:49;;;;;;;5.43;3.33;;;8.60;99.90;;;;;;5115610;28;20166;-85
2021/05/31 03:05:18;;;;;;;5.83;2.90;;;8.60;99.90;;;;;;5115828;28;20639;-84
2021/05/31 03:07:44;;;;;;;4.93;3.07;;;8.60;99.90;;;;;;5114677;28;20205;-84
2021/05/31 03:10:11;;;;;;;4.47;2.70;;;8.60;99.90;;;;;;5115249;28;20266;-84
2021/05/31 03:12:38;;;;;;;5.10;2.70;;;8.60;99.90;;;;;;5116016;28;20201;-84
2021/05/31 03:15:10;;;;;;;4.40;2.97;;;8.70;99.90;;;;;;5114041;28;20654;-85
2021/05/31 03:17:35;;;;;;;5.70;2.60;;;8.70;99.90;;;;;;5115504;28;20224;-84
2021/05/31 03:20:02;;;;;;;3.53;2.83;;;8.70;99.90;;;;;;5096791;28;20687;-85
2021/05/31 03:22:28;;;;;;;5.20;3.63;;;8.70;99.90;;;;;;5115478;28;20226;-85
2021/05/31 03:24:53;;;;;;;7.73;3.33;;;8.70;99.90;;;;;;5114117;28;20272;-85
2021/05/31 03:27:19;;;;;;;7.13;3.03;;;8.80;99.90;;;;;;5114436;28;20183;-84
2021/05/31 03:29:45;;;;;;;4.50;2.87;;;;;;;;;;5114147;28;20189;-85
2021/05/31 03:32:11;;;;;;;6.53;3.40;;;8.80;99.90;;;;;;5113813;28;20300;-85
2021/05/31 03:34:36;;;;;;;4.50;2.53;;;8.80;99.90;;;;;;5114174;28;20192;-85
2021/05/31 03:37:02;;;;;;;8.83;3.00;;;8.80;99.90;;;;;;5114473;28;20650;-85
2021/05/31 03:39:29;;;;;;;6.37;3.23;;;8.90;99.90;;;;;;5113722;28;20185;-85
2021/05/31 03:41:55;;;;;;;5.70;3.10;;;;;;;;;;5114559;28;20638;-85
2021/05/31 03:44:21;;;;;;;5.33;3.17;;;8.90;99.90;;;;;;5104238;28;20236;-84
2021/05/31 03:46:47;;;;;;;4.10;2.87;;;8.90;99.90;;;;;;5111521;28;20182;-85
2021/05/31 03:49:13;;;;;;;4.23;3.00;;;8.90;99.90;;;;;;5107133;28;20179;-85
2021/05/31 03:51:38;;;;;;;7.53;3.23;;;8.90;99.90;;;;;;5099986;28;20662;-85
2021/05/31 03:54:04;;;;;;;6.20;2.93;;;9.00;99.90;;;;;;5113067;28;20213;-85
2021/05/31 03:56:30;;;;;;;5.93;3.57;;;9.00;99.90;;;;;;5110759;28;20402;-85
2021/05/31 03:58:55;;;;;;;8.77;3.70;;;9.10;99.90;;;;;;5113769;28;20189;-85
2021/05/31 04:01:21;;;;;;;3.77;3.10;;;9.10;99.90;;;;;;5101277;28;20193;-85
2021/05/31 04:03:47;;;;;;;7.43;3.43;;;9.20;99.90;;;;;;5112976;28;20178;-85
2021/05/31 04:11:34;;;;;;;12.10;4.07;;;9.40;99.90;;;;;;5113353;28;20607;-85
2021/05/31 04:14:01;;;;;;;4.40;2.80;;;9.50;99.90;;;;;;5096034;28;20185;-85
2021/05/31 04:16:26;;;;;;;5.27;3.23;;;9.60;99.90;;;;;;5113016;28;20654;-85
2021/05/31 04:18:52;;;;;;;9.53;3.10;;;9.60;99.90;;;;;;5093497;28;20186;-85
2021/05/31 04:21:18;;;;;;;6.17;2.97;;;9.60;99.90;;;;;;5113914;28;20186;-85
2021/05/31 04:23:43;;;;;;;9.17;2.97;;;9.60;99.90;;;;;;5113554;28;20184;-85
2021/05/31 04:26:09;;;;;;;6.27;2.80;;;9.60;99.90;;;;;;5113532;28;20185;-85
2021/05/31 04:28:34;;;;;;;9.07;3.20;;;9.50;99.90;;;;;;5111835;28;20186;-84
2021/05/31 04:31:00;;;;;;;7.53;3.00;;;9.50;99.90;;;;;;5110816;28;20263;-84
2021/05/31 04:33:26;;;;;;;8.83;3.10;;;9.40;99.90;;;;;;5110993;28;20226;-84
2021/05/31 04:35:51;;;;;;;6.50;3.03;;;9.50;99.90;;;;;;5110626;28;20204;-84
2021/05/31 04:38:17;;;;;;;11.03;3.37;;;9.50;99.90;;;;;;5113630;28;20296;-85
2021/05/31 04:40:43;;;;;;;9.37;3.70;;;9.50;99.90;;;;;;5111440;28;20556;-86
2021/05/31 04:43:09;;;;;;;9.17;3.57;;;9.70;99.90;;;;;;5109100;28;20213;-85
2021/05/31 04:45:34;;;;;;;4.03;2.70;;;9.80;99.90;;;;;;5110476;28;20181;-85
2021/05/31 04:48:00;;;;;;;10.67;3.67;;;9.80;99.90;;;;;;5091229;28;20690;-86
2021/05/31 04:50:26;;;;;;;6.60;2.80;;;9.70;99.90;;;;;;5111284;28;20678;-85
2021/05/31 04:52:51;;;;;;;5.00;2.93;;;9.90;99.90;;;;;;5110723;28;20552;-85
2021/05/31 04:55:18;;;;;;;5.47;3.30;;;10.00;99.90;;;;;;5093554;28;20197;-85
2021/05/31 04:57:47;;;;;;;7.10;3.40;;;10.10;99.90;;;;;;5112769;28;20178;-85
2021/05/31 05:00:15;;;;;;;4.83;2.70;;;10.30;99.90;;;;;;5110826;28;20269;-85
2021/05/31 05:02:40;;;;;;;4.80;2.90;;;10.40;99.90;;;;;;5110836;28;20188;-85
2021/05/31 05:05:07;;;;;;;4.90;3.27;;;10.70;99.90;;;;;;5113162;28;20166;-84
2021/05/31 05:07:33;;;;;;;4.80;2.90;;;10.50;99.90;;;;;;5113861;28;20166;-85
2021/05/31 05:09:58;;;;;;;3.90;2.97;;;10.60;99.90;;;;;;5114024;28;20181;-83
2021/05/31 05:12:24;;;;;;;7.93;3.40;;;10.70;99.90;;;;;;5128980;27;20210;-83
2021/05/31 05:14:50;;;;;;;5.70;3.50;;;10.70;99.90;;;;;;5113134;28;20176;-83
2021/05/31 05:17:16;;;;;;;10.48;3.22;;;10.80;99.90;;;;;;5115114;28;20174;-82
2021/05/31 05:19:42;;;;;;;4.13;2.92;;;;;;;;;;5113984;28;20174;-84
2021/05/31 05:22:08;;;;;;;9.48;3.40;;;11.00;99.90;;;;;;5113261;28;20170;-83
2021/05/31 05:24:34;;;;;;;3.72;2.97;;;;;;;;;;5113583;28;20178;-83
2021/05/31 05:27:05;;;;;;;8.50;4.25;;;11.20;99.90;;;;;;5113198;28;20178;-83
2021/05/31 05:29:32;;;;;;;5.85;2.92;;;11.30;99.90;;;;;;5113881;28;20166;-83
2021/05/31 05:31:59;;;;;;;7.10;2.97;;;11.40;99.90;;;;;;5113309;28;20302;-84
2021/05/31 05:34:25;;;;;;;9.43;3.40;;;11.40;99.90;;;;;;5111739;28;20583;-83
2021/05/31 05:49:45;;;;;;;7.55;2.95;;;12.00;99.90;;;;;;5113264;28;20204;-83
2021/05/31 05:52:12;;;;;;;5.97;3.08;;;12.10;99.90;;;;;;5111037;28;20690;-83
2021/05/31 05:54:38;;;;;;;8.25;3.60;;;12.10;99.90;;;;;;5111389;28;20206;-83
2021/05/31 05:57:04;;;;;;;5.43;3.05;;;12.10;99.90;;;;;;5112972;28;20687;-83
2021/05/31 05:59:30;;;;;;;9.20;3.42;;;12.10;99.90;;;;;;5111556;28;20182;-83
2021/05/31 06:01:55;;;;;;;8.38;3.13;;;12.10;99.90;;;;;;5111684;28;20182;-83
2021/05/31 06:04:21;;;;;;;6.35;3.35;;;12.20;99.90;;;;;;5112554;28;20204;-84
2021/05/31 06:06:47;;;;;;;8.75;3.75;;;12.30;99.90;;;;;;5112041;28;20750;-83
2021/05/31 06:09:15;;;;;;;9.35;3.22;;;12.50;99.90;;;;;;5112722;28;20174;-83
2021/05/31 06:11:41;;;;;;;4.55;2.83;;;12.60;99.90;;;;;;5111518;28;20278;-83
2021/05/31 06:14:09;;;;;;;6.32;3.17;;;12.70;99.90;;;;;;5112695;28;20561;-85
2021/05/31 06:16:35;;;;;;;4.13;2.88;;;12.80;99.90;;;;;;5112872;28;20650;-84
2021/05/31 06:19:01;;;;;;;7.45;3.22;;;12.90;99.90;;;;;;5096710;28;20189;-84
2021/05/31 06:21:26;;;;;;;9.18;3.40;;;12.90;99.90;;;;;;5116234;28;20289;-84
2021/05/31 06:23:54;;;;;;;5.00;3.30;;;12.90;99.90;;;;;;5116658;28;20177;-84
2021/05/31 06:26:20;;;;;;;9.82;3.90;;;13.00;99.90;;;;;;5115400;28;20182;-84
2021/05/31 06:28:46;;;;;;;6.65;3.60;;;13.10;99.90;;;;;;5114830;28;20678;-84
2021/05/31 06:31:11;;;;;;;6.30;3.33;;;13.20;99.90;;;;;;5115049;28;20216;-85
2021/05/31 06:33:37;;;;;;;9.38;3.10;;;13.30;99.90;;;;;;5116309;28;20174;-84
2021/05/31 06:36:06;;;;;;;3.95;3.00;;;13.40;99.90;;;;;;5098163;28;20694;-84
2021/05/31 06:38:33;;;;;;;6.40;2.92;;;13.30;99.90;;;;;;5116125;28;20713;-84
2021/05/31 06:40:59;;;;;;;9.70;3.00;;;13.10;99.90;;;;;;5116463;28;20219;-83
2021/05/31 06:43:24;;;;;;;5.93;3.08;;;12.80;99.90;;;;;;5114802;28;20178;-84
2021/05/31 06:45:50;;;;;;;10.20;3.50;;;12.70;99.90;;;;;;5115532;28;20177;-85
2021/05/31 06:48:16;;;;;;;12.23;3.28;;;12.60;99.90;;;;;;5115953;28;20180;-84
2021/05/31 06:50:43;;;;;;;7.10;2.88;;;12.60;99.90;;;;;;5098422;28;20214;-84
2021/05/31 06:53:09;;;;;;;7.28;2.85;;;12.60;99.90;;;;;;5115063;28;20212;-84
2021/05/31 06:55:35;;;;;;;4.75;3.47;;;;;;;;;;5116238;28;20274;-88
2021/05/31 06:58:01;;;;;;;6.72;3.67;;;12.60;99.90;;;;;;5114635;28;20184;-84
2021/05/31 07:00:27;;;;;;;7.32;2.88;;;12.60;99.90;;;;;;5114601;28;20257;-87
2021/05/31 07:02:53;;;;;;;6.78;3.38;;;12.60;99.90;;;;;;5114946;28;20189;-85
2021/05/31 07:05:20;;;;;;;6.43;3.63;;;12.60;99.90;;;;;;5115033;28;20173;-84
2021/05/31 07:07:46;;;;;;;6.55;3.72;;;12.70;99.90;;;;;;5114557;28;20181;-84
2021/05/31 07:10:14;;;;;;;4.85;3.45;;;12.90;99.90;;;;;;5113533;28;20225;-84
2021/05/31 07:12:40;;;;;;;5.63;3.17;;;13.10;99.90;;;;;;5115639;28;20178;-84
2021/05/31 07:15:07;;;;;;;5.50;2.85;;;13.20;99.90;;;;;;5115365;28;20174;-84
2021/05/31 07:17:35;;;;;;;6.55;2.85;;;13.40;99.90;;;;;;5115223;28;20216;-84
2021/05/31 07:20:01;;;;;;;6.53;3.22;;;13.50;99.90;;;;;;5115273;28;20231;-83
2021/05/31 07:22:27;;;;;;;9.77;3.05;;;13.60;99.90;;;;;;5115002;28;20182;-84
2021/05/31 07:24:53;;;;;;;5.75;3.42;;;13.70;99.90;;;;;;5114108;28;20185;-84
2021/05/31 07:27:20;;;;;;;4.07;3.08;;;13.90;99.90;;;;;;5096973;28;20224;-84
2021/05/31 07:29:46;;;;;;;4.43;3.35;;;14.10;99.90;;;;;;5115097;28;20307;-85
2021/05/31 07:32:12;;;;;;;4.65;3.20;;;14.30;99.90;;;;;;5114888;28;20296;-84
2021/05/31 07:34:37;;;;;;;4.65;3.28;;;14.40;99.90;;;;;;5114068;28;20540;-84
2021/05/31 07:37:04;;;;;;;25.20;5.63;;;14.50;99.90;;;;;;5114920;28;20174;-85
2021/05/31 07:39:29;;;;;;;18.67;4.18;;;14.70;99.90;;;;;;5115260;28;20174;-85
2021/05/31 07:41:55;;;;;;;5.53;2.40;;;14.80;99.90;;;;;;5114218;28;20657;-84
2021/05/31 07:44:21;;;;;;;5.53;2.72;;;;;;;;;;5114405;28;20193;-85
2021/05/31 07:46:47;;;;;;;5.45;2.28;;;15.10;99.90;;;;;;5113748;28;20630;-85
2021/05/31 07:49:13;;;;;;;41.08;6.55;;;;;;;;;;5113487;28;20190;-85
2021/05/31 07:51:44;;;;;;;6.95;2.83;;;15.30;99.90;;;;;;5115194;28;20223;-84
2021/05/31 07:54:10;;;;;;;4.93;2.42;;;15.40;99.90;;;;;;5112209;28;20275;-85
2021/05/31 07:56:36;;;;;;;6.60;2.72;;;15.40;99.90;;;;;;5113172;28;20609;-84
2021/05/31 07:59:03;;;;;;;6.25;2.40;;;15.40;99.90;;;;;;5113606;28;20210;-84
2021/05/31 08:01:29;;;;;;;8.20;2.75;;;15.40;99.90;;;;;;5113361;28;20178;-84
2021/05/31 08:03:54;;;;;;;3.78;2.42;;;15.50;99.90;;;;;;5089009;28;20221;-84
2021/05/31 08:06:20;;;;;;;4.25;2.38;;;15.60;99.90;;;;;;5094599;28;20175;-84
2021/05/31 08:08:46;;;;;;;5.13;2.65;;;15.70;99.90;;;;;;5090544;28;20179;-84
2021/05/31 08:11:13;;;;;;;4.80;3.10;;;15.90;99.90;;;;;;5091420;28;20299;-84
2021/05/31 08:13:39;;;;;;;12.23;3.13;;;15.90;99.90;;;;;;5092078;28;20225;-84
2021/05/31 08:16:06;;;;;;;4.18;2.35;;;16.00;99.90;;;;;;5092312;28;20182;-84
2021/05/31 08:18:32;;;;;;;3.28;2.65;;;16.20;99.90;;;;;;5125579;27;20171;-83
2021/05/31 08:20:58;;;;;;;4.85;2.55;;;16.50;99.90;;;;;;5093206;28;20665;-84
2021/05/31 08:23:25;;;;;;;9.23;2.70;;;16.70;99.90;;;;;;5092804;28;20181;-84
2021/05/31 08:25:51;;;;;;;3.90;2.83;;;16.50;99.90;;;;;;5093088;28;20182;-84
2021/05/31 08:28:16;;;;;;;3.28;2.97;;;16.20;99.90;;;;;;5126460;27;20182;-84
2021/05/31 08:30:43;;;;;;;10.32;2.75;;;16.00;99.90;;;;;;5126084;27;20603;-84
2021/05/31 08:33:10;;;;;;;6.80;2.42;;;15.40;99.90;;;;;;5126259;27;20178;-84
2021/05/31 08:35:38;;;;;;;3.97;2.50;;;15.50;99.90;;;;;;5093562;28;20174;-85
2021/05/31 08:38:04;;;;;;;5.53;2.40;;;15.30;99.90;;;;;;5093763;28;20627;-84
2021/05/31 08:40:29;;;;;;;6.07;2.50;;;15.30;99.90;;;;;;5092756;28;20189;-85
2021/05/31 08:42:56;;;;;;;5.00;2.50;;;;;;;;;;5093198;28;20174;-84
2021/05/31 08:45:24;;;;;;;8.43;2.45;;;15.00;99.90;;;;;;5093288;28;20201;-84
2021/05/31 08:47:51;;;;;;;6.57;2.42;;;14.90;99.90;;;;;;5125623;27;20210;-84
2021/05/31 08:50:21;;;;;;;6.57;2.65;;;14.80;99.90;;;;;;5092126;28;20179;-83
2021/05/31 08:52:49;;;;;;;4.20;2.50;;;14.70;99.90;;;;;;5093335;28;20201;-84
2021/05/31 08:55:17;;;;;;;6.70;3.80;;;14.80;99.90;;;;;;5093555;28;20186;-84
2021/05/31 08:57:42;;;;;;;4.20;2.42;;;14.90;99.90;;;;;;5092827;28;20699;-84
2021/05/31 09:00:11;;;;;;;6.63;2.70;;;15.00;99.90;;;;;;5126263;27;20631;-84
2021/05/31 09:02:38;;;;;;;4.55;2.58;;;15.10;99.90;;;;;;5093140;28;20174;-84
2021/05/31 09:05:05;;;;;;;4.43;2.70;;;15.20;99.90;;;;;;5125928;27;20269;-85
2021/05/31 09:07:31;;;;;;;3.85;2.70;;;15.40;99.90;;;;;;5092892;28;20185;-84
2021/05/31 09:09:57;;;;;;;3.72;2.15;;;15.50;99.90;;;;;;5092948;28;20183;-84
2021/05/31 09:12:28;;;;;;;114.28;14.95;;;15.50;99.90;;;;;;5092983;28;20277;-84
2021/05/31 09:15:02;;;;;;;10.98;2.22;;;15.50;99.90;;;;;;5092949;28;20209;-84
2021/05/31 09:17:30;;;;;;;3.70;2.30;;;15.50;99.90;;;;;;5092676;28;20520;-84
2021/05/31 09:19:56;;;;;;;6.53;2.45;;;15.40;99.90;;;;;;5092454;28;20178;-85
2021/05/31 09:22:28;;;;;;;13.10;7.03;;;15.60;99.90;;;;;;5093275;28;20167;-84
2021/05/31 09:24:58;;;;;;;3.55;1.58;;;15.90;95.70;;;;;;5107908;28;20186;-85
2021/05/31 09:27:26;;;;;;;8.68;2.22;;;16.50;98.60;;;;;;5093318;28;20174;-85
2021/05/31 09:29:57;;;;;;;4.78;2.63;;;17.00;97.50;;;;;;5091949;28;20178;-84
2021/05/31 09:32:24;;;;;;;4.78;2.15;;;17.20;95.10;;;;;;5092807;28;20221;-85
2021/05/31 09:35:03;;;;;;;3.45;1.80;;;17.10;93.60;;;;;;5091069;28;20638;-85
2021/05/31 09:37:29;;;;;;;3.47;1.83;;;16.70;91.80;;;;;;5091687;28;20182;-84
2021/05/31 09:40:20;;;;;;;5.25;1.80;;;16.50;93.50;;;;;;5093212;28;20174;-85
2021/05/31 09:42:51;;;;;;;2.47;2.00;;;16.20;92.40;;;;;;5092628;28;20202;-84
2021/05/31 09:45:18;;;;;;;5.30;1.70;;;16.00;93.50;;;;;;5092948;28;20170;-84
2021/05/31 09:47:44;;;;;;;4.38;2.03;;;15.90;94.00;;;;;;5092260;28;20170;-85
2021/05/31 09:50:11;;;;;;;4.13;2.05;;;15.80;93.00;;;;;;5091738;28;20273;-85
2021/05/31 09:52:37;;;;;;;9.02;1.98;;;15.70;93.20;;;;;;5125547;27;20242;-84
2021/05/31 09:55:06;;;;;;;4.00;1.88;;;15.70;93.90;;;;;;5095511;28;20587;-84
2021/05/31 09:57:35;;;;;;;2.35;1.88;;;15.80;93.70;;;;;;5129105;27;20182;-84
2021/05/31 10:00:16;;;;;;;1.80;1.60;;;15.90;93.50;;;;;;5096637;28;20264;-84
2021/05/31 10:07:51;;;;;;;4.18;1.63;;;16.40;88.90;;;;;;5096156;28;20266;-84
2021/05/31 10:10:17;;;;;;;2.97;1.75;;;16.80;83.10;;;;;;5096739;28;20238;-83
2021/05/31 10:12:43;;;;;;;4.32;1.50;;;17.20;80.20;;;;;;5096955;28;20321;-83
2021/05/31 10:15:11;;;;;;;3.10;1.70;;;17.50;80.00;;;;;;5109946;28;20221;-83
2021/05/31 10:17:38;;;;;;;4.10;1.48;;;17.70;75.90;;;;;;5113659;28;20199;-83
2021/05/31 10:20:05;;;;;;;3.67;1.40;;;17.90;79.80;;;;;;5116191;28;20192;-82
2021/05/31 10:22:32;;;;;;;3.10;1.60;;;18.00;74.50;;;;;;5116221;28;20189;-84
2021/05/31 10:25:00;;;;;;;2.40;1.40;;;18.00;67.60;;;;;;5132389;27;20657;-84
2021/05/31 10:27:29;;;;;;;5.63;1.80;;;18.20;64.50;;;;;;5116135;28;20166;-84
2021/05/31 10:29:56;;;;;;;3.38;1.70;;;18.00;64.50;;;;;;5116044;28;20173;-84
2021/05/31 10:32:21;;;;;;;2.78;1.60;;;17.70;64.40;;;;;;5116113;28;20213;-84
2021/05/31 10:34:49;;;;;;;1.60;1.50;;;17.50;67.20;;;;;;5114729;28;20547;-83
2021/05/31 10:37:21;;;;;;;3.00;1.40;;;17.10;66.10;;;;;;5115481;28;20273;-83
2021/05/31 10:40:09;;;;;;;2.85;1.38;;;17.20;69.80;;;;;;5115786;28;20166;-83
2021/05/31 10:42:45;;;;;;;2.30;1.45;;;17.80;70.60;;;;;;5116466;28;20168;-83
2021/05/31 10:45:20;;;;;;;7.72;1.30;;;18.00;70.20;;;;;;5115919;28;20209;-83
2021/05/31 10:48:16;;;;;;;2.00;1.52;;;17.60;67.10;;;;;;5114142;28;20173;-83
2021/05/31 10:50:47;;;;;;;3.83;1.48;;;17.20;67.30;;;;;;5114363;28;20202;-84
2021/05/31 10:53:39;;;;;;;4.70;1.48;;;17.00;67.90;;;;;;5114556;28;20186;-84
2021/05/31 10:56:10;;;;;;;15.43;2.80;;;16.80;70.90;;;;;;5113920;28;20182;-84
2021/05/31 10:58:48;;;;;;;2.85;1.70;;;16.80;68.70;;;;;;5113628;28;20180;-84
2021/05/31 11:01:17;;;;;;;27.85;3.67;;;16.70;70.50;;;;;;5114429;28;20181;-85
2021/05/31 11:03:53;;;;;;;3.05;1.20;;;16.70;70.00;;;;;;5113398;28;20797;-85
2021/05/31 11:06:21;;;;;;;32.67;5.85;;;16.80;70.70;;;;;;5113684;28;20174;-84
2021/05/31 11:09:03;;;;;;;3.45;2.15;;;17.20;72.20;;;;;;5114530;28;20235;-84
2021/05/31 11:11:31;;;;;;;4.07;1.50;;;17.50;71.60;;;;;;5113761;28;20236;-84
2021/05/31 11:13:58;;;;;;;3.95;1.58;;;17.90;67.70;;;;;;5115228;28;21029;-87
2021/05/31 11:16:25;;;;;;;7.00;1.90;;;18.00;70.20;;;;;;5114285;28;20677;-84
2021/05/31 11:19:00;;;;;;;16.15;3.08;;;18.10;67.10;;;;;;5113407;28;20706;-85
2021/05/31 11:21:37;;;;;;;5.35;1.60;;;18.20;65.50;;;;;;5112158;28;20184;-85
2021/05/31 11:24:12;;;;;;;2.20;1.52;;;18.60;64.70;;;;;;5114670;28;20655;-83
2021/05/31 11:26:39;;;;;;;3.28;1.80;;;18.40;64.20;;;;;;5113495;28;20170;-84
2021/05/31 11:29:08;;;;;;;3.17;1.55;;;18.50;60.50;;;;;;5112784;28;20641;-84
2021/05/31 11:31:34;;;;;;;1.58;1.35;;;18.60;59.90;;;;;;5112482;28;20214;-84
2021/05/31 11:34:01;;;;;;;2.40;1.40;;;18.70;63.30;;;;;;5114232;28;20178;-84
2021/05/31 11:36:31;;;;;;;17.60;2.30;;;18.80;61.70;;;;;;5114759;28;20184;-84
2021/05/31 11:38:58;;;;;;;8.52;2.03;;;18.80;61.80;;;;;;5114771;28;20174;-84
2021/05/31 11:41:32;;;;;;;2.25;1.40;;;19.00;60.20;;;;;;5114682;28;20642;-84
2021/05/31 11:43:57;;;;;;;2.17;1.48;;;18.70;59.60;;;;;;5113289;28;20186;-82
2021/05/31 11:46:23;;;;;;;8.57;2.22;;;18.40;58.60;;;;;;5113821;28;20684;-84
2021/05/31 11:48:49;;;;;;;6.32;1.50;;;18.00;60.20;;;;;;5096166;28;20185;-85
2021/05/31 11:51:15;;;;;;;3.15;1.70;;;17.70;60.50;;;;;;5114118;28;20308;-83
2021/05/31 11:53:45;;;;;;;7.97;1.60;;;17.50;60.00;;;;;;5113583;28;20283;-84
2021/05/31 11:56:12;;;;;;;2.35;1.08;;;17.30;59.70;;;;;;5112861;28;20194;-84
2021/05/31 11:58:42;;;;;;;2.42;1.50;;;17.30;61.00;;;;;;5112036;28;20512;-84
2021/05/31 12:01:12;;;;;;;4.03;1.33;;;16.60;62.50;;;;;;5110297;28;20189;-84
2021/05/31 12:03:39;;;;;;;2.33;1.50;;;17.80;59.00;;;;;;5106599;27;20605;-83
2021/05/31 12:06:12;;;;;;;1.83;1.73;;;18.10;61.40;;;;;;5090546;28;20191;-82
2021/05/31 12:08:38;;;;;;;3.22;1.40;;;18.50;58.10;;;;;;5092099;28;20203;-83
2021/05/31 12:11:04;;;;;;;2.35;1.38;;;18.50;60.40;;;;;;5108422;28;20237;-83
2021/05/31 12:13:35;;;;;;;1.73;1.60;;;18.40;62.90;;;;;;5112645;28;20599;-82
2021/05/31 12:16:21;;;;;;;3.97;1.48;;;18.10;62.20;;;;;;5111619;28;20235;-83
2021/05/31 12:18:46;;;;;;;4.50;1.48;;;18.00;63.60;;;;;;5110160;28;20190;-84
2021/05/31 12:21:12;;;;;;;4.75;1.60;;;18.10;63.40;;;;;;5111013;28;20268;-82
2021/05/31 12:23:38;;;;;;;8.27;1.60;;;18.10;63.40;;;;;;5111984;28;20675;-82
2021/05/31 12:26:05;;;;;;;3.85;2.63;;;18.30;64.10;;;;;;5111107;28;20669;-83
2021/05/31 12:28:36;;;;;;;3.35;2.20;;;18.60;63.80;;;;;;5111837;28;20174;-83
2021/05/31 12:31:02;;;;;;;2.25;1.85;;;18.60;61.50;;;;;;5111055;28;20248;-83
2021/05/31 12:33:28;;;;;;;3.08;1.50;;;18.40;62.70;;;;;;5094179;28;20699;-84
2021/05/31 12:35:54;;;;;;;3.10;1.33;;;18.10;60.30;;;;;;5110928;28;20182;-82
2021/05/31 12:38:22;;;;;;;4.05;1.90;;;18.00;60.80;;;;;;5111393;28;20198;-83
2021/05/31 12:40:54;;;;;;;3.03;1.50;;;17.80;60.50;;;;;;5112277;28;20188;-83
2021/05/31 12:43:33;;;;;;;2.05;1.55;;;17.80;62.00;;;;;;5113998;28;20634;-83
2021/05/31 12:46:00;;;;;;;2.25;1.70;;;17.70;63.70;;;;;;5112660;28;20221;-83
2021/05/31 12:48:26;;;;;;;11.32;2.13;;;17.70;59.80;;;;;;5113783;28;20185;-83
2021/05/31 12:50:55;;;;;;;1.98;1.20;;;17.60;60.50;;;;;;5112434;28;20246;-83
2021/05/31 12:53:21;;;;;;;51.55;6.47;;;17.70;60.30;;;;;;5112224;28;20529;-82
2021/05/31 12:55:48;;;;;;;8.20;2.13;;;18.00;61.60;;;;;;5114337;28;20180;-83
2021/05/31 12:58:26;;;;;;;3.00;1.50;;;18.20;57.80;;;;;;5113838;28;20166;-83
2021/05/31 13:00:52;;;;;;;3.22;1.60;;;18.30;58.60;;;;;;5114267;28;20633;-83
2021/05/31 13:03:20;;;;;;;3.25;1.58;;;18.60;58.20;;;;;;5113739;28;20205;-83
2021/05/31 13:05:51;;;;;;;1.60;1.45;;;18.80;58.50;;;;;;5113288;28;20180;-83
2021/05/31 13:08:19;;;;;;;7.80;2.28;;;18.60;57.50;;;;;;5113710;28;20239;-83
2021/05/31 13:10:48;;;;;;;9.85;1.98;;;18.50;59.50;;;;;;5094526;28;20233;-84
2021/05/31 13:13:19;;;;;;;17.67;1.92;;;18.20;57.90;;;;;;5111784;28;20642;-83
2021/05/31 13:15:45;;;;;;;3.33;1.67;;;17.90;58.30;;;;;;5112610;28;20198;-83
2021/05/31 13:18:15;;;;;;;12.40;2.60;;;17.40;63.30;;;;;;5111090;28;20666;-83
2021/05/31 13:20:41;;;;;;;20.65;3.13;;;17.70;63.40;;;;;;5111535;28;20169;-83